McCook, NE (69001)

5:32 PM CDT on August 04, 2015 (GMT -0500)
KNEMCCOO2 | | Change Station
CLOSE
Current Station
Personal Weather Station
Location: McCook, NE
Elevation: 2609 ft
Nearby Weather Stations
Active Advisory: Severe Thunderstorm Watch Active Notice: Local Storm Report

Elev 2609 ft 40.21 °N, 100.64 °W | Updated 7 minutes ago

Thunderstorm
Thunderstorm
63.3 °F
Feels Like 63.3 °F
N
0.0
Wind Variable Wind from East
Gusts 0.0 mph

Today
High -- | Low -- °F
--% Chance of Precip.
Yesterday
High -- | Low -- °F
Precip. -- in
6:43 AM 8:53 PM
Waning Gibbous, 74% visible
Pressure 29.92 in
Visibility 10.0 miles
Clouds Clear
Dew Point 62 °F
Humidity 96%
Rainfall 3.45 in
Snow Depth Not available.
UV 6 out of 12
Pollen 7.90 out of 12
Air Quality Not available.
Flu Activity Not available.
METAR KMCK 042153Z AUTO 12004KT 10SM CLR 17/17 A2997 RMK AO2 LTG DSNT E AND SE RAE06 TSE2058B03E24 SLP132 P0001 T01720167

More Conditions Fewer Conditions

Pressure 29.92 in
Visibility 10.0 miles
Clouds Clear
Dew Point 62 °F
Humidity 96%
Rainfall 3.45 in
Snow Depth Not available.
UV 6 out of 12
Pollen 7.90 out of 12
Air Quality Not available.
Flu Activity Not available.
METAR KMCK 042153Z AUTO 12004KT 10SM CLR 17/17 A2997 RMK AO2 LTG DSNT E AND SE RAE06 TSE2058B03E24 SLP132 P0001 T01720167

More Conditions Fewer Conditions

10-Day Weather Forecast

×

Almanac

Astronomy

Aug. 04, 2015 Rise Set
Actual Time
Civil Twilight
Nautical Twilight
Astronomical Twilight
Moon
Length of Visible Light
Length of Day
Tomorrow will be .
, % of the Moon is Illuminated

Today's Extremes

State Highs State Lows

Community

WunderPhotos

Upload Photos

1,844,007 photos uploaded!

WunderBlogs® & News

Nearby

Air Quality

  Air Quality AQ Index Pollutant
Not available.

Snow Depth

Station Depth Elevation

Earthquake Activity

City Distance Mag. Time & Date
Minimum magnitude displayed is 2.5.

Coastal Water Temperatures

Place Temperature

Stations

Nearby Weather Stations

Station Location Temp. Windchill Dew Point Humidity Wind Precip. Elev Updated Type
                   
Severe Thunderstorm Watch
Statement as of 5:24 PM CDT on August 04, 2015

Severe Thunderstorm Watch 470 remains in effect until 900 PM CDT

NE
. Nebraska counties included are

Adams Buffalo Dawson
Franklin Furnas Gosper
Harlan Kearney Nuckolls
Phelps Red Willow Webster